sensor_id;sensor_type;location;lat;lon;timestamp;P1;durP1;ratioP1;P2;durP2;ratioP2
34984;SDS011;21190;58.750;17.004;2023-05-10T00:00:24;9.90;;;4.97;;
34984;SDS011;21190;58.750;17.004;2023-05-10T00:02:51;9.63;;;4.90;;
34984;SDS011;21190;58.750;17.004;2023-05-10T00:05:19;9.43;;;5.88;;
34984;SDS011;21190;58.750;17.004;2023-05-10T00:07:46;9.23;;;4.18;;
34984;SDS011;21190;58.750;17.004;2023-05-10T00:10:12;9.27;;;4.75;;
34984;SDS011;21190;58.750;17.004;2023-05-10T00:12:40;7.53;;;5.03;;
34984;SDS011;21190;58.750;17.004;2023-05-10T00:15:07;10.85;;;4.45;;
34984;SDS011;21190;58.750;17.004;2023-05-10T00:17:35;7.10;;;4.70;;
34984;SDS011;21190;58.750;17.004;2023-05-10T00:20:02;15.68;;;5.40;;
34984;SDS011;21190;58.750;17.004;2023-05-10T00:22:31;7.35;;;4.95;;
34984;SDS011;21190;58.750;17.004;2023-05-10T00:24:58;9.52;;;4.80;;
34984;SDS011;21190;58.750;17.004;2023-05-10T00:27:25;9.95;;;5.00;;
34984;SDS011;21190;58.750;17.004;2023-05-10T00:29:52;7.13;;;4.70;;
34984;SDS011;21190;58.750;17.004;2023-05-10T00:32:19;7.07;;;4.57;;
34984;SDS011;21190;58.750;17.004;2023-05-10T00:34:47;8.02;;;4.88;;
34984;SDS011;21190;58.750;17.004;2023-05-10T00:37:14;9.02;;;4.40;;
34984;SDS011;21190;58.750;17.004;2023-05-10T00:39:40;9.52;;;4.53;;
34984;SDS011;21190;58.750;17.004;2023-05-10T00:42:07;7.63;;;5.30;;
34984;SDS011;21190;58.750;17.004;2023-05-10T00:44:34;9.60;;;4.72;;
34984;SDS011;21190;58.750;17.004;2023-05-10T00:47:01;8.65;;;4.75;;
34984;SDS011;21190;58.750;17.004;2023-05-10T00:49:28;8.80;;;4.85;;
34984;SDS011;21190;58.750;17.004;2023-05-10T00:51:56;7.95;;;4.85;;
34984;SDS011;21190;58.750;17.004;2023-05-10T00:54:23;11.52;;;5.45;;
34984;SDS011;21190;58.750;17.004;2023-05-10T00:56:50;11.70;;;5.70;;
34984;SDS011;21190;58.750;17.004;2023-05-10T00:59:18;12.07;;;5.68;;
34984;SDS011;21190;58.750;17.004;2023-05-10T01:01:45;9.57;;;5.55;;
34984;SDS011;21190;58.750;17.004;2023-05-10T01:04:13;7.45;;;4.97;;
34984;SDS011;21190;58.750;17.004;2023-05-10T01:06:42;10.68;;;5.38;;
34984;SDS011;21190;58.750;17.004;2023-05-10T01:09:09;11.68;;;5.15;;
34984;SDS011;21190;58.750;17.004;2023-05-10T01:11:38;8.45;;;5.03;;
34984;SDS011;21190;58.750;17.004;2023-05-10T01:14:06;8.43;;;5.20;;
34984;SDS011;21190;58.750;17.004;2023-05-10T01:16:34;9.73;;;6.28;;
34984;SDS011;21190;58.750;17.004;2023-05-10T01:19:38;16.00;;;5.88;;
34984;SDS011;21190;58.750;17.004;2023-05-10T01:27:23;11.60;;;6.35;;
34984;SDS011;21190;58.750;17.004;2023-05-10T01:35:37;12.75;;;7.35;;
34984;SDS011;21190;58.750;17.004;2023-05-10T01:40:48;15.73;;;8.18;;
34984;SDS011;21190;58.750;17.004;2023-05-10T01:46:25;15.50;;;9.45;;
34984;SDS011;21190;58.750;17.004;2023-05-10T01:48:59;13.63;;;8.68;;
34984;SDS011;21190;58.750;17.004;2023-05-10T01:51:31;13.60;;;9.18;;
34984;SDS011;21190;58.750;17.004;2023-05-10T01:54:06;17.05;;;9.30;;
34984;SDS011;21190;58.750;17.004;2023-05-10T01:56:36;19.00;;;10.93;;
34984;SDS011;21190;58.750;17.004;2023-05-10T01:59:05;16.65;;;10.68;;
34984;SDS011;21190;58.750;17.004;2023-05-10T02:01:40;18.63;;;10.48;;
34984;SDS011;21190;58.750;17.004;2023-05-10T02:04:09;18.45;;;10.52;;
34984;SDS011;21190;58.750;17.004;2023-05-10T02:06:37;17.73;;;10.73;;
34984;SDS011;21190;58.750;17.004;2023-05-10T02:09:05;17.80;;;10.70;;
34984;SDS011;21190;58.750;17.004;2023-05-10T02:11:34;22.23;;;11.65;;
34984;SDS011;21190;58.750;17.004;2023-05-10T02:14:03;19.77;;;12.05;;
34984;SDS011;21190;58.750;17.004;2023-05-10T02:16:33;18.10;;;11.50;;
34984;SDS011;21190;58.750;17.004;2023-05-10T02:19:02;20.20;;;10.35;;
34984;SDS011;21190;58.750;17.004;2023-05-10T02:21:30;20.77;;;10.38;;
34984;SDS011;21190;58.750;17.004;2023-05-10T02:23:59;25.15;;;11.20;;
34984;SDS011;21190;58.750;17.004;2023-05-10T02:26:29;16.45;;;10.02;;
34984;SDS011;21190;58.750;17.004;2023-05-10T02:28:57;18.90;;;11.13;;
34984;SDS011;21190;58.750;17.004;2023-05-10T02:31:25;19.67;;;11.70;;
34984;SDS011;21190;58.750;17.004;2023-05-10T02:33:52;20.90;;;11.45;;
34984;SDS011;21190;58.750;17.004;2023-05-10T02:36:20;23.17;;;11.82;;
34984;SDS011;21190;58.750;17.004;2023-05-10T02:38:49;22.92;;;10.68;;
34984;SDS011;21190;58.750;17.004;2023-05-10T02:41:17;22.60;;;11.45;;
34984;SDS011;21190;58.750;17.004;2023-05-10T02:43:46;18.35;;;11.75;;
34984;SDS011;21190;58.750;17.004;2023-05-10T02:46:15;24.35;;;11.82;;
34984;SDS011;21190;58.750;17.004;2023-05-10T02:48:42;16.63;;;11.40;;
34984;SDS011;21190;58.750;17.004;2023-05-10T02:51:09;21.67;;;11.93;;
34984;SDS011;21190;58.750;17.004;2023-05-10T02:53:40;18.10;;;10.85;;
34984;SDS011;21190;58.750;17.004;2023-05-10T02:56:11;20.60;;;11.55;;
34984;SDS011;21190;58.750;17.004;2023-05-10T02:58:41;18.52;;;10.27;;
34984;SDS011;21190;58.750;17.004;2023-05-10T03:01:08;22.13;;;10.35;;
34984;SDS011;21190;58.750;17.004;2023-05-10T03:03:35;18.40;;;11.40;;
34984;SDS011;21190;58.750;17.004;2023-05-10T03:06:02;18.15;;;11.27;;
34984;SDS011;21190;58.750;17.004;2023-05-10T03:08:31;14.75;;;10.82;;
34984;SDS011;21190;58.750;17.004;2023-05-10T03:13:41;22.13;;;10.25;;
34984;SDS011;21190;58.750;17.004;2023-05-10T03:16:21;17.08;;;11.00;;
34984;SDS011;21190;58.750;17.004;2023-05-10T03:19:05;23.73;;;10.57;;
34984;SDS011;21190;58.750;17.004;2023-05-10T03:21:40;22.48;;;10.90;;
34984;SDS011;21190;58.750;17.004;2023-05-10T03:24:11;17.10;;;11.25;;
34984;SDS011;21190;58.750;17.004;2023-05-10T03:26:41;19.98;;;10.60;;
34984;SDS011;21190;58.750;17.004;2023-05-10T03:29:13;19.58;;;11.10;;
34984;SDS011;21190;58.750;17.004;2023-05-10T03:31:42;15.98;;;10.18;;
34984;SDS011;21190;58.750;17.004;2023-05-10T03:34:09;17.63;;;10.68;;
34984;SDS011;21190;58.750;17.004;2023-05-10T03:36:36;15.82;;;10.07;;
34984;SDS011;21190;58.750;17.004;2023-05-10T03:39:03;16.25;;;9.60;;
34984;SDS011;21190;58.750;17.004;2023-05-10T03:41:30;15.85;;;9.52;;
34984;SDS011;21190;58.750;17.004;2023-05-10T03:43:57;16.15;;;10.43;;
34984;SDS011;21190;58.750;17.004;2023-05-10T03:46:24;29.75;;;11.40;;
34984;SDS011;21190;58.750;17.004;2023-05-10T03:48:51;18.67;;;10.68;;
34984;SDS011;21190;58.750;17.004;2023-05-10T03:51:18;19.33;;;9.45;;
34984;SDS011;21190;58.750;17.004;2023-05-10T03:53:45;15.82;;;9.18;;
34984;SDS011;21190;58.750;17.004;2023-05-10T03:56:12;21.77;;;9.88;;
34984;SDS011;21190;58.750;17.004;2023-05-10T03:58:39;15.40;;;9.23;;
34984;SDS011;21190;58.750;17.004;2023-05-10T04:01:06;12.93;;;9.10;;
34984;SDS011;21190;58.750;17.004;2023-05-10T04:03:32;15.48;;;9.27;;
34984;SDS011;21190;58.750;17.004;2023-05-10T04:06:01;14.30;;;8.55;;
34984;SDS011;21190;58.750;17.004;2023-05-10T04:08:29;14.35;;;8.25;;
34984;SDS011;21190;58.750;17.004;2023-05-10T04:11:09;21.83;;;8.57;;
34984;SDS011;21190;58.750;17.004;2023-05-10T04:13:37;13.27;;;8.27;;
34984;SDS011;21190;58.750;17.004;2023-05-10T04:16:04;15.52;;;8.73;;
34984;SDS011;21190;58.750;17.004;2023-05-10T04:18:31;17.52;;;9.15;;
34984;SDS011;21190;58.750;17.004;2023-05-10T04:20:58;16.42;;;8.65;;
34984;SDS011;21190;58.750;17.004;2023-05-10T04:23:26;14.93;;;8.88;;
34984;SDS011;21190;58.750;17.004;2023-05-10T04:26:00;10.82;;;7.55;;
34984;SDS011;21190;58.750;17.004;2023-05-10T04:28:27;17.05;;;9.07;;
34984;SDS011;21190;58.750;17.004;2023-05-10T04:31:05;18.08;;;8.98;;
34984;SDS011;21190;58.750;17.004;2023-05-10T04:33:33;11.77;;;8.02;;
34984;SDS011;21190;58.750;17.004;2023-05-10T04:36:00;16.80;;;7.78;;
34984;SDS011;21190;58.750;17.004;2023-05-10T04:38:28;13.00;;;7.75;;
34984;SDS011;21190;58.750;17.004;2023-05-10T04:41:03;18.23;;;7.47;;
34984;SDS011;21190;58.750;17.004;2023-05-10T04:43:31;15.00;;;6.75;;
34984;SDS011;21190;58.750;17.004;2023-05-10T04:45:58;13.98;;;7.22;;
34984;SDS011;21190;58.750;17.004;2023-05-10T04:48:25;17.20;;;9.35;;
34984;SDS011;21190;58.750;17.004;2023-05-10T04:50:52;16.65;;;6.82;;
34984;SDS011;21190;58.750;17.004;2023-05-10T04:53:19;21.00;;;7.63;;
34984;SDS011;21190;58.750;17.004;2023-05-10T04:55:46;17.33;;;7.07;;
34984;SDS011;21190;58.750;17.004;2023-05-10T04:58:14;17.02;;;6.20;;
34984;SDS011;21190;58.750;17.004;2023-05-10T05:00:41;13.85;;;6.57;;
34984;SDS011;21190;58.750;17.004;2023-05-10T05:03:08;12.63;;;6.47;;
34984;SDS011;21190;58.750;17.004;2023-05-10T05:05:35;14.52;;;6.68;;
34984;SDS011;21190;58.750;17.004;2023-05-10T05:08:02;10.60;;;5.80;;
34984;SDS011;21190;58.750;17.004;2023-05-10T05:10:30;13.27;;;6.28;;
34984;SDS011;21190;58.750;17.004;2023-05-10T05:12:57;12.60;;;6.53;;
34984;SDS011;21190;58.750;17.004;2023-05-10T05:15:23;11.13;;;5.93;;
34984;SDS011;21190;58.750;17.004;2023-05-10T05:17:50;10.85;;;5.80;;
34984;SDS011;21190;58.750;17.004;2023-05-10T05:20:18;14.75;;;6.00;;
34984;SDS011;21190;58.750;17.004;2023-05-10T05:22:45;10.55;;;5.63;;
34984;SDS011;21190;58.750;17.004;2023-05-10T05:25:12;10.57;;;5.40;;
34984;SDS011;21190;58.750;17.004;2023-05-10T05:27:39;6.78;;;5.05;;
34984;SDS011;21190;58.750;17.004;2023-05-10T05:30:06;10.52;;;5.60;;
34984;SDS011;21190;58.750;17.004;2023-05-10T05:32:33;12.10;;;6.78;;
34984;SDS011;21190;58.750;17.004;2023-05-10T05:35:00;9.77;;;5.40;;
34984;SDS011;21190;58.750;17.004;2023-05-10T05:37:27;9.80;;;5.05;;
34984;SDS011;21190;58.750;17.004;2023-05-10T05:39:54;10.93;;;4.60;;
34984;SDS011;21190;58.750;17.004;2023-05-10T05:42:21;13.00;;;5.45;;
34984;SDS011;21190;58.750;17.004;2023-05-10T05:44:48;14.40;;;5.35;;
34984;SDS011;21190;58.750;17.004;2023-05-10T05:47:15;13.93;;;5.20;;
34984;SDS011;21190;58.750;17.004;2023-05-10T05:49:42;12.05;;;5.13;;
34984;SDS011;21190;58.750;17.004;2023-05-10T05:52:11;9.32;;;4.80;;
34984;SDS011;21190;58.750;17.004;2023-05-10T05:54:38;10.25;;;5.22;;
34984;SDS011;21190;58.750;17.004;2023-05-10T05:57:05;20.23;;;6.03;;
34984;SDS011;21190;58.750;17.004;2023-05-10T05:59:33;13.98;;;5.57;;
34984;SDS011;21190;58.750;17.004;2023-05-10T06:02:00;9.25;;;4.82;;
34984;SDS011;21190;58.750;17.004;2023-05-10T06:04:27;12.73;;;4.78;;
34984;SDS011;21190;58.750;17.004;2023-05-10T06:06:54;7.93;;;4.65;;
34984;SDS011;21190;58.750;17.004;2023-05-10T06:09:21;6.47;;;5.10;;
34984;SDS011;21190;58.750;17.004;2023-05-10T06:11:50;8.88;;;4.70;;
34984;SDS011;21190;58.750;17.004;2023-05-10T06:14:17;10.05;;;4.85;;
34984;SDS011;21190;58.750;17.004;2023-05-10T06:16:46;12.82;;;4.85;;
34984;SDS011;21190;58.750;17.004;2023-05-10T06:19:13;7.85;;;4.60;;
34984;SDS011;21190;58.750;17.004;2023-05-10T06:21:40;14.63;;;5.82;;
34984;SDS011;21190;58.750;17.004;2023-05-10T06:24:07;8.82;;;4.97;;
34984;SDS011;21190;58.750;17.004;2023-05-10T06:26:34;8.50;;;4.68;;
34984;SDS011;21190;58.750;17.004;2023-05-10T06:29:01;8.18;;;5.03;;
34984;SDS011;21190;58.750;17.004;2023-05-10T06:31:28;13.82;;;5.82;;
34984;SDS011;21190;58.750;17.004;2023-05-10T06:33:55;11.18;;;5.57;;
34984;SDS011;21190;58.750;17.004;2023-05-10T06:36:23;13.73;;;4.65;;
34984;SDS011;21190;58.750;17.004;2023-05-10T06:38:52;11.45;;;4.93;;
34984;SDS011;21190;58.750;17.004;2023-05-10T06:41:19;10.13;;;5.07;;
34984;SDS011;21190;58.750;17.004;2023-05-10T06:43:49;9.13;;;4.53;;
34984;SDS011;21190;58.750;17.004;2023-05-10T06:46:16;6.97;;;4.78;;
34984;SDS011;21190;58.750;17.004;2023-05-10T06:48:44;10.02;;;4.82;;
34984;SDS011;21190;58.750;17.004;2023-05-10T06:51:11;14.57;;;5.32;;
34984;SDS011;21190;58.750;17.004;2023-05-10T06:53:38;10.27;;;4.90;;
34984;SDS011;21190;58.750;17.004;2023-05-10T06:56:04;11.93;;;4.97;;
34984;SDS011;21190;58.750;17.004;2023-05-10T06:58:31;12.23;;;5.38;;
34984;SDS011;21190;58.750;17.004;2023-05-10T07:01:02;8.52;;;4.70;;
34984;SDS011;21190;58.750;17.004;2023-05-10T07:03:30;14.45;;;4.90;;
34984;SDS011;21190;58.750;17.004;2023-05-10T07:06:01;10.70;;;4.25;;
34984;SDS011;21190;58.750;17.004;2023-05-10T07:08:43;10.82;;;5.05;;
34984;SDS011;21190;58.750;17.004;2023-05-10T07:11:10;10.10;;;4.95;;
34984;SDS011;21190;58.750;17.004;2023-05-10T07:13:37;15.27;;;4.70;;
34984;SDS011;21190;58.750;17.004;2023-05-10T07:16:07;9.70;;;4.85;;
34984;SDS011;21190;58.750;17.004;2023-05-10T07:18:34;8.82;;;4.70;;
34984;SDS011;21190;58.750;17.004;2023-05-10T07:21:01;7.18;;;4.47;;
34984;SDS011;21190;58.750;17.004;2023-05-10T07:23:29;9.95;;;4.55;;
34984;SDS011;21190;58.750;17.004;2023-05-10T07:25:56;11.00;;;4.45;;
34984;SDS011;21190;58.750;17.004;2023-05-10T07:28:23;12.05;;;4.53;;
34984;SDS011;21190;58.750;17.004;2023-05-10T07:30:50;11.45;;;4.55;;
34984;SDS011;21190;58.750;17.004;2023-05-10T07:33:17;12.30;;;4.68;;
34984;SDS011;21190;58.750;17.004;2023-05-10T07:35:44;7.47;;;4.35;;
34984;SDS011;21190;58.750;17.004;2023-05-10T07:38:11;9.05;;;5.55;;
34984;SDS011;21190;58.750;17.004;2023-05-10T07:40:38;8.25;;;4.72;;
34984;SDS011;21190;58.750;17.004;2023-05-10T07:43:05;11.63;;;4.40;;
34984;SDS011;21190;58.750;17.004;2023-05-10T07:45:33;14.23;;;4.72;;
34984;SDS011;21190;58.750;17.004;2023-05-10T07:48:00;14.38;;;4.30;;
34984;SDS011;21190;58.750;17.004;2023-05-10T07:50:27;7.50;;;4.43;;
34984;SDS011;21190;58.750;17.004;2023-05-10T07:52:54;8.02;;;4.68;;
34984;SDS011;21190;58.750;17.004;2023-05-10T07:55:21;12.80;;;4.80;;
34984;SDS011;21190;58.750;17.004;2023-05-10T07:57:48;9.75;;;5.03;;
34984;SDS011;21190;58.750;17.004;2023-05-10T08:00:19;12.55;;;5.10;;
34984;SDS011;21190;58.750;17.004;2023-05-10T08:02:47;12.60;;;5.97;;
34984;SDS011;21190;58.750;17.004;2023-05-10T08:05:14;9.60;;;4.90;;
34984;SDS011;21190;58.750;17.004;2023-05-10T08:07:42;10.32;;;5.07;;
34984;SDS011;21190;58.750;17.004;2023-05-10T08:10:10;10.52;;;5.30;;
34984;SDS011;21190;58.750;17.004;2023-05-10T08:12:37;13.93;;;5.63;;
34984;SDS011;21190;58.750;17.004;2023-05-10T08:15:05;14.75;;;6.18;;
34984;SDS011;21190;58.750;17.004;2023-05-10T08:17:32;17.45;;;6.15;;
34984;SDS011;21190;58.750;17.004;2023-05-10T08:20:00;13.85;;;6.53;;
34984;SDS011;21190;58.750;17.004;2023-05-10T08:22:27;12.20;;;5.35;;
34984;SDS011;21190;58.750;17.004;2023-05-10T08:24:54;8.75;;;5.15;;
34984;SDS011;21190;58.750;17.004;2023-05-10T08:27:21;11.88;;;6.07;;
34984;SDS011;21190;58.750;17.004;2023-05-10T08:29:48;13.00;;;5.93;;
34984;SDS011;21190;58.750;17.004;2023-05-10T08:32:16;14.55;;;5.93;;
34984;SDS011;21190;58.750;17.004;2023-05-10T08:34:43;15.88;;;6.55;;
34984;SDS011;21190;58.750;17.004;2023-05-10T08:37:10;16.88;;;5.82;;
34984;SDS011;21190;58.750;17.004;2023-05-10T08:39:39;16.02;;;5.97;;
34984;SDS011;21190;58.750;17.004;2023-05-10T08:42:06;16.80;;;6.18;;
34984;SDS011;21190;58.750;17.004;2023-05-10T08:44:35;15.82;;;6.30;;
34984;SDS011;21190;58.750;17.004;2023-05-10T08:47:06;17.77;;;6.00;;
34984;SDS011;21190;58.750;17.004;2023-05-10T08:49:34;9.70;;;5.82;;
34984;SDS011;21190;58.750;17.004;2023-05-10T08:52:02;13.30;;;5.38;;
34984;SDS011;21190;58.750;17.004;2023-05-10T08:54:33;12.95;;;4.85;;
34984;SDS011;21190;58.750;17.004;2023-05-10T08:57:00;9.82;;;5.70;;
34984;SDS011;21190;58.750;17.004;2023-05-10T08:59:28;9.70;;;5.53;;
34984;SDS011;21190;58.750;17.004;2023-05-10T09:01:58;11.65;;;4.65;;
34984;SDS011;21190;58.750;17.004;2023-05-10T09:04:25;18.05;;;4.82;;
34984;SDS011;21190;58.750;17.004;2023-05-10T09:06:53;9.40;;;4.68;;
34984;SDS011;21190;58.750;17.004;2023-05-10T09:09:20;8.23;;;3.95;;
34984;SDS011;21190;58.750;17.004;2023-05-10T09:11:48;8.63;;;4.38;;
34984;SDS011;21190;58.750;17.004;2023-05-10T09:14:15;11.82;;;4.40;;
34984;SDS011;21190;58.750;17.004;2023-05-10T09:16:43;16.50;;;4.55;;
34984;SDS011;21190;58.750;17.004;2023-05-10T09:19:10;11.73;;;4.00;;
34984;SDS011;21190;58.750;17.004;2023-05-10T09:21:38;10.90;;;4.10;;
34984;SDS011;21190;58.750;17.004;2023-05-10T09:24:05;11.80;;;3.97;;
34984;SDS011;21190;58.750;17.004;2023-05-10T09:26:33;8.30;;;4.40;;
34984;SDS011;21190;58.750;17.004;2023-05-10T09:29:01;8.82;;;4.70;;
34984;SDS011;21190;58.750;17.004;2023-05-10T09:34:28;10.00;;;4.43;;
34984;SDS011;21190;58.750;17.004;2023-05-10T09:36:57;6.07;;;4.05;;
34984;SDS011;21190;58.750;17.004;2023-05-10T09:39:34;11.50;;;4.43;;
34984;SDS011;21190;58.750;17.004;2023-05-10T09:42:03;9.25;;;4.18;;
34984;SDS011;21190;58.750;17.004;2023-05-10T09:44:32;9.85;;;3.92;;
34984;SDS011;21190;58.750;17.004;2023-05-10T09:47:00;11.77;;;4.22;;
34984;SDS011;21190;58.750;17.004;2023-05-10T09:49:27;8.07;;;4.53;;
34984;SDS011;21190;58.750;17.004;2023-05-10T09:52:04;10.82;;;4.50;;
34984;SDS011;21190;58.750;17.004;2023-05-10T09:54:33;7.47;;;4.45;;
34984;SDS011;21190;58.750;17.004;2023-05-10T09:57:01;11.13;;;4.30;;
34984;SDS011;21190;58.750;17.004;2023-05-10T09:59:28;7.65;;;3.65;;
34984;SDS011;21190;58.750;17.004;2023-05-10T10:01:56;7.07;;;4.15;;
34984;SDS011;21190;58.750;17.004;2023-05-10T10:04:24;9.10;;;3.75;;
34984;SDS011;21190;58.750;17.004;2023-05-10T10:07:01;11.55;;;4.22;;
34984;SDS011;21190;58.750;17.004;2023-05-10T10:09:30;6.78;;;3.55;;
34984;SDS011;21190;58.750;17.004;2023-05-10T10:11:58;11.30;;;3.65;;
34984;SDS011;21190;58.750;17.004;2023-05-10T10:14:26;10.98;;;4.40;;
34984;SDS011;21190;58.750;17.004;2023-05-10T10:16:53;9.70;;;4.63;;
34984;SDS011;21190;58.750;17.004;2023-05-10T10:19:32;12.30;;;4.10;;
34984;SDS011;21190;58.750;17.004;2023-05-10T10:22:01;7.70;;;4.03;;
34984;SDS011;21190;58.750;17.004;2023-05-10T10:24:29;11.93;;;3.88;;
34984;SDS011;21190;58.750;17.004;2023-05-10T10:26:57;10.32;;;4.28;;
34984;SDS011;21190;58.750;17.004;2023-05-10T10:29:36;12.63;;;4.07;;
34984;SDS011;21190;58.750;17.004;2023-05-10T10:35:50;7.30;;;3.30;;
34984;SDS011;21190;58.750;17.004;2023-05-10T10:38:19;11.63;;;3.50;;
34984;SDS011;21190;58.750;17.004;2023-05-10T10:40:47;6.72;;;4.00;;
34984;SDS011;21190;58.750;17.004;2023-05-10T10:43:24;10.77;;;3.70;;
34984;SDS011;21190;58.750;17.004;2023-05-10T10:48:48;16.70;;;3.80;;
34984;SDS011;21190;58.750;17.004;2023-05-10T10:51:17;11.18;;;4.78;;
34984;SDS011;21190;58.750;17.004;2023-05-10T10:53:44;10.77;;;4.25;;
34984;SDS011;21190;58.750;17.004;2023-05-10T10:56:14;5.25;;;3.75;;
34984;SDS011;21190;58.750;17.004;2023-05-10T10:58:42;7.40;;;3.58;;
34984;SDS011;21190;58.750;17.004;2023-05-10T11:01:18;9.93;;;4.18;;
34984;SDS011;21190;58.750;17.004;2023-05-10T11:06:34;5.63;;;3.35;;
34984;SDS011;21190;58.750;17.004;2023-05-10T11:09:09;7.25;;;4.15;;
34984;SDS011;21190;58.750;17.004;2023-05-10T11:11:53;6.53;;;3.42;;
34984;SDS011;21190;58.750;17.004;2023-05-10T11:14:24;5.43;;;3.08;;
34984;SDS011;21190;58.750;17.004;2023-05-10T11:16:52;7.88;;;3.35;;
34984;SDS011;21190;58.750;17.004;2023-05-10T11:19:19;5.88;;;3.00;;
34984;SDS011;21190;58.750;17.004;2023-05-10T11:24:31;4.70;;;2.88;;
34984;SDS011;21190;58.750;17.004;2023-05-10T11:27:00;7.93;;;2.67;;
34984;SDS011;21190;58.750;17.004;2023-05-10T11:29:27;6.88;;;2.92;;
34984;SDS011;21190;58.750;17.004;2023-05-10T11:31:56;5.18;;;3.10;;
34984;SDS011;21190;58.750;17.004;2023-05-10T11:34:28;9.65;;;3.70;;
34984;SDS011;21190;58.750;17.004;2023-05-10T11:36:57;4.75;;;2.67;;
34984;SDS011;21190;58.750;17.004;2023-05-10T11:39:27;8.02;;;2.78;;
34984;SDS011;21190;58.750;17.004;2023-05-10T11:41:55;7.82;;;2.97;;
34984;SDS011;21190;58.750;17.004;2023-05-10T11:44:23;4.95;;;2.80;;
34984;SDS011;21190;58.750;17.004;2023-05-10T11:46:57;6.85;;;2.70;;
34984;SDS011;21190;58.750;17.004;2023-05-10T11:49:26;7.85;;;2.80;;
34984;SDS011;21190;58.750;17.004;2023-05-10T11:51:53;11.02;;;2.95;;
34984;SDS011;21190;58.750;17.004;2023-05-10T11:54:29;9.20;;;2.78;;
34984;SDS011;21190;58.750;17.004;2023-05-10T11:56:57;8.88;;;3.15;;
34984;SDS011;21190;58.750;17.004;2023-05-10T11:59:24;7.05;;;3.42;;
34984;SDS011;21190;58.750;17.004;2023-05-10T12:01:51;6.50;;;2.50;;
34984;SDS011;21190;58.750;17.004;2023-05-10T12:04:18;5.97;;;2.75;;
34984;SDS011;21190;58.750;17.004;2023-05-10T12:06:46;6.80;;;2.78;;
34984;SDS011;21190;58.750;17.004;2023-05-10T12:09:13;8.52;;;2.95;;
34984;SDS011;21190;58.750;17.004;2023-05-10T12:11:42;3.75;;;2.60;;
34984;SDS011;21190;58.750;17.004;2023-05-10T12:14:09;6.13;;;2.45;;
34984;SDS011;21190;58.750;17.004;2023-05-10T12:16:37;4.25;;;2.35;;
34984;SDS011;21190;58.750;17.004;2023-05-10T12:19:04;11.07;;;2.80;;
34984;SDS011;21190;58.750;17.004;2023-05-10T12:21:32;10.93;;;2.67;;
34984;SDS011;21190;58.750;17.004;2023-05-10T12:24:00;4.43;;;2.60;;
34984;SDS011;21190;58.750;17.004;2023-05-10T12:26:29;7.63;;;2.60;;
34984;SDS011;21190;58.750;17.004;2023-05-10T12:29:12;9.18;;;3.08;;
34984;SDS011;21190;58.750;17.004;2023-05-10T12:34:24;5.28;;;2.78;;
34984;SDS011;21190;58.750;17.004;2023-05-10T12:36:59;4.45;;;2.85;;
34984;SDS011;21190;58.750;17.004;2023-05-10T12:39:37;8.52;;;2.90;;
34984;SDS011;21190;58.750;17.004;2023-05-10T12:42:09;8.00;;;2.63;;
34984;SDS011;21190;58.750;17.004;2023-05-10T12:44:36;8.82;;;2.80;;
34984;SDS011;21190;58.750;17.004;2023-05-10T12:47:03;6.97;;;3.58;;
34984;SDS011;21190;58.750;17.004;2023-05-10T12:49:30;6.65;;;2.50;;
34984;SDS011;21190;58.750;17.004;2023-05-10T12:51:57;5.60;;;3.10;;
34984;SDS011;21190;58.750;17.004;2023-05-10T12:54:24;6.47;;;2.60;;
34984;SDS011;21190;58.750;17.004;2023-05-10T12:56:51;6.38;;;2.90;;
34984;SDS011;21190;58.750;17.004;2023-05-10T12:59:18;7.32;;;2.90;;
34984;SDS011;21190;58.750;17.004;2023-05-10T13:01:45;6.13;;;2.80;;
34984;SDS011;21190;58.750;17.004;2023-05-10T13:04:12;6.60;;;2.97;;
34984;SDS011;21190;58.750;17.004;2023-05-10T13:06:39;4.65;;;2.63;;
34984;SDS011;21190;58.750;17.004;2023-05-10T13:09:06;4.32;;;2.40;;
34984;SDS011;21190;58.750;17.004;2023-05-10T13:11:33;6.93;;;2.90;;
34984;SDS011;21190;58.750;17.004;2023-05-10T13:14:01;8.65;;;3.35;;
34984;SDS011;21190;58.750;17.004;2023-05-10T13:16:29;5.43;;;2.72;;
34984;SDS011;21190;58.750;17.004;2023-05-10T13:18:56;5.63;;;2.42;;
34984;SDS011;21190;58.750;17.004;2023-05-10T13:21:24;4.85;;;2.78;;
34984;SDS011;21190;58.750;17.004;2023-05-10T13:23:52;5.35;;;2.38;;
34984;SDS011;21190;58.750;17.004;2023-05-10T13:26:19;11.23;;;2.55;;
34984;SDS011;21190;58.750;17.004;2023-05-10T13:28:46;11.77;;;2.75;;
34984;SDS011;21190;58.750;17.004;2023-05-10T13:31:15;8.13;;;2.55;;
34984;SDS011;21190;58.750;17.004;2023-05-10T13:33:42;13.65;;;2.70;;
34984;SDS011;21190;58.750;17.004;2023-05-10T13:36:09;6.63;;;2.78;;
34984;SDS011;21190;58.750;17.004;2023-05-10T13:38:36;4.90;;;2.63;;
34984;SDS011;21190;58.750;17.004;2023-05-10T13:41:03;7.35;;;2.75;;
34984;SDS011;21190;58.750;17.004;2023-05-10T13:43:30;9.10;;;2.53;;
34984;SDS011;21190;58.750;17.004;2023-05-10T13:45:57;3.30;;;2.45;;
34984;SDS011;21190;58.750;17.004;2023-05-10T13:48:24;5.72;;;2.50;;
34984;SDS011;21190;58.750;17.004;2023-05-10T13:50:51;5.05;;;2.95;;
34984;SDS011;21190;58.750;17.004;2023-05-10T13:53:18;9.05;;;3.42;;
34984;SDS011;21190;58.750;17.004;2023-05-10T13:55:45;5.35;;;2.53;;
34984;SDS011;21190;58.750;17.004;2023-05-10T13:58:13;4.43;;;2.80;;
34984;SDS011;21190;58.750;17.004;2023-05-10T14:00:40;9.32;;;3.03;;
34984;SDS011;21190;58.750;17.004;2023-05-10T14:03:07;12.05;;;2.70;;
34984;SDS011;21190;58.750;17.004;2023-05-10T14:05:37;7.85;;;2.90;;
34984;SDS011;21190;58.750;17.004;2023-05-10T14:08:04;5.53;;;2.63;;
34984;SDS011;21190;58.750;17.004;2023-05-10T14:10:31;7.25;;;2.70;;
34984;SDS011;21190;58.750;17.004;2023-05-10T14:12:58;6.30;;;2.40;;
34984;SDS011;21190;58.750;17.004;2023-05-10T14:15:25;6.85;;;2.70;;
34984;SDS011;21190;58.750;17.004;2023-05-10T14:17:52;5.72;;;3.08;;
34984;SDS011;21190;58.750;17.004;2023-05-10T14:20:19;7.50;;;2.75;;
34984;SDS011;21190;58.750;17.004;2023-05-10T14:22:46;6.00;;;2.40;;
34984;SDS011;21190;58.750;17.004;2023-05-10T14:25:13;10.55;;;3.58;;
34984;SDS011;21190;58.750;17.004;2023-05-10T14:27:41;3.58;;;2.65;;
34984;SDS011;21190;58.750;17.004;2023-05-10T14:30:08;5.57;;;2.40;;
34984;SDS011;21190;58.750;17.004;2023-05-10T14:32:35;4.30;;;2.30;;
34984;SDS011;21190;58.750;17.004;2023-05-10T14:35:03;3.67;;;2.10;;
34984;SDS011;21190;58.750;17.004;2023-05-10T14:37:32;4.43;;;2.35;;
34984;SDS011;21190;58.750;17.004;2023-05-10T14:39:59;3.33;;;2.35;;
34984;SDS011;21190;58.750;17.004;2023-05-10T14:42:26;10.73;;;2.60;;
34984;SDS011;21190;58.750;17.004;2023-05-10T14:44:54;8.02;;;2.60;;
34984;SDS011;21190;58.750;17.004;2023-05-10T14:47:21;8.10;;;2.58;;
34984;SDS011;21190;58.750;17.004;2023-05-10T14:49:48;6.78;;;2.85;;
34984;SDS011;21190;58.750;17.004;2023-05-10T14:52:15;4.47;;;2.40;;
34984;SDS011;21190;58.750;17.004;2023-05-10T14:54:42;6.63;;;2.15;;
34984;SDS011;21190;58.750;17.004;2023-05-10T14:57:09;7.40;;;2.83;;
34984;SDS011;21190;58.750;17.004;2023-05-10T14:59:36;6.28;;;2.42;;
34984;SDS011;21190;58.750;17.004;2023-05-10T15:02:03;15.63;;;3.20;;
34984;SDS011;21190;58.750;17.004;2023-05-10T15:04:31;8.18;;;2.30;;
34984;SDS011;21190;58.750;17.004;2023-05-10T15:06:58;6.70;;;2.70;;
34984;SDS011;21190;58.750;17.004;2023-05-10T15:09:26;6.97;;;2.45;;